sensor_id;sensor_type;location;lat;lon;timestamp;P1;durP1;ratioP1;P2;durP2;ratioP2
26622;SDS011;14254;50.968;5.366;2022-11-15T00:00:27;28.05;;;19.30;;
26622;SDS011;14254;50.968;5.366;2022-11-15T00:02:53;31.20;;;19.02;;
26622;SDS011;14254;50.968;5.366;2022-11-15T00:05:19;32.95;;;19.35;;
26622;SDS011;14254;50.968;5.366;2022-11-15T00:07:46;31.35;;;18.33;;
26622;SDS011;14254;50.968;5.366;2022-11-15T00:10:11;35.17;;;18.25;;
26622;SDS011;14254;50.968;5.366;2022-11-15T00:12:37;34.42;;;17.52;;
26622;SDS011;14254;50.968;5.366;2022-11-15T00:15:03;27.92;;;15.90;;
26622;SDS011;14254;50.968;5.366;2022-11-15T00:17:29;32.80;;;18.05;;
26622;SDS011;14254;50.968;5.366;2022-11-15T00:19:54;40.55;;;18.20;;
26622;SDS011;14254;50.968;5.366;2022-11-15T00:22:20;31.27;;;17.08;;
26622;SDS011;14254;50.968;5.366;2022-11-15T00:24:46;29.05;;;17.98;;
26622;SDS011;14254;50.968;5.366;2022-11-15T00:27:12;25.88;;;17.55;;
26622;SDS011;14254;50.968;5.366;2022-11-15T00:29:37;27.02;;;17.58;;
26622;SDS011;14254;50.968;5.366;2022-11-15T00:32:08;28.00;;;16.75;;
26622;SDS011;14254;50.968;5.366;2022-11-15T00:34:34;23.95;;;16.92;;
26622;SDS011;14254;50.968;5.366;2022-11-15T00:36:59;30.17;;;16.75;;
26622;SDS011;14254;50.968;5.366;2022-11-15T00:39:25;28.83;;;17.65;;
26622;SDS011;14254;50.968;5.366;2022-11-15T00:41:51;36.20;;;18.63;;
26622;SDS011;14254;50.968;5.366;2022-11-15T00:44:16;30.05;;;17.40;;
26622;SDS011;14254;50.968;5.366;2022-11-15T00:46:42;28.40;;;17.48;;
26622;SDS011;14254;50.968;5.366;2022-11-15T00:49:07;32.58;;;18.13;;
26622;SDS011;14254;50.968;5.366;2022-11-15T00:51:33;31.15;;;18.00;;
26622;SDS011;14254;50.968;5.366;2022-11-15T00:53:59;28.38;;;17.83;;
26622;SDS011;14254;50.968;5.366;2022-11-15T00:56:24;25.90;;;17.02;;
26622;SDS011;14254;50.968;5.366;2022-11-15T00:58:50;28.10;;;17.13;;
26622;SDS011;14254;50.968;5.366;2022-11-15T01:01:15;28.85;;;17.42;;
26622;SDS011;14254;50.968;5.366;2022-11-15T01:03:41;28.33;;;16.40;;
26622;SDS011;14254;50.968;5.366;2022-11-15T01:06:07;26.70;;;17.73;;
26622;SDS011;14254;50.968;5.366;2022-11-15T01:08:33;29.30;;;17.42;;
26622;SDS011;14254;50.968;5.366;2022-11-15T01:11:00;30.60;;;16.83;;
26622;SDS011;14254;50.968;5.366;2022-11-15T01:13:31;23.87;;;16.13;;
26622;SDS011;14254;50.968;5.366;2022-11-15T01:15:58;23.40;;;16.25;;
26622;SDS011;14254;50.968;5.366;2022-11-15T01:18:24;24.77;;;15.40;;
26622;SDS011;14254;50.968;5.366;2022-11-15T01:20:50;25.80;;;15.68;;
26622;SDS011;14254;50.968;5.366;2022-11-15T01:23:15;27.63;;;17.65;;
26622;SDS011;14254;50.968;5.366;2022-11-15T01:25:41;25.90;;;16.08;;
26622;SDS011;14254;50.968;5.366;2022-11-15T01:28:07;24.55;;;16.52;;
26622;SDS011;14254;50.968;5.366;2022-11-15T01:30:32;30.73;;;17.20;;
26622;SDS011;14254;50.968;5.366;2022-11-15T01:32:58;24.17;;;15.60;;
26622;SDS011;14254;50.968;5.366;2022-11-15T01:35:24;23.02;;;15.95;;
26622;SDS011;14254;50.968;5.366;2022-11-15T01:37:49;27.08;;;16.08;;
26622;SDS011;14254;50.968;5.366;2022-11-15T01:40:15;28.67;;;16.58;;
26622;SDS011;14254;50.968;5.366;2022-11-15T01:42:40;23.45;;;16.92;;
26622;SDS011;14254;50.968;5.366;2022-11-15T01:45:09;31.00;;;16.95;;
26622;SDS011;14254;50.968;5.366;2022-11-15T01:47:40;28.63;;;16.63;;
26622;SDS011;14254;50.968;5.366;2022-11-15T01:50:12;31.52;;;16.20;;
26622;SDS011;14254;50.968;5.366;2022-11-15T01:52:41;25.13;;;14.75;;
26622;SDS011;14254;50.968;5.366;2022-11-15T01:55:13;27.77;;;16.30;;
26622;SDS011;14254;50.968;5.366;2022-11-15T01:57:46;25.52;;;16.30;;
26622;SDS011;14254;50.968;5.366;2022-11-15T02:00:14;28.80;;;16.80;;
26622;SDS011;14254;50.968;5.366;2022-11-15T02:02:41;24.77;;;15.48;;
26622;SDS011;14254;50.968;5.366;2022-11-15T02:05:06;23.85;;;15.65;;
26622;SDS011;14254;50.968;5.366;2022-11-15T02:07:33;22.75;;;15.82;;
26622;SDS011;14254;50.968;5.366;2022-11-15T02:10:02;25.67;;;14.85;;
26622;SDS011;14254;50.968;5.366;2022-11-15T02:12:33;25.63;;;14.05;;
26622;SDS011;14254;50.968;5.366;2022-11-15T02:14:59;28.13;;;15.50;;
26622;SDS011;14254;50.968;5.366;2022-11-15T02:17:43;25.83;;;15.38;;
26622;SDS011;14254;50.968;5.366;2022-11-15T02:25:41;25.30;;;15.18;;
26622;SDS011;14254;50.968;5.366;2022-11-15T02:28:39;20.35;;;14.13;;
26622;SDS011;14254;50.968;5.366;2022-11-15T02:32:06;24.88;;;14.15;;
26622;SDS011;14254;50.968;5.366;2022-11-15T02:36:44;22.15;;;14.52;;
26622;SDS011;14254;50.968;5.366;2022-11-15T02:39:20;23.95;;;14.52;;
26622;SDS011;14254;50.968;5.366;2022-11-15T02:41:53;22.30;;;13.93;;
26622;SDS011;14254;50.968;5.366;2022-11-15T02:44:26;23.60;;;13.65;;
26622;SDS011;14254;50.968;5.366;2022-11-15T02:47:03;21.58;;;14.07;;
26622;SDS011;14254;50.968;5.366;2022-11-15T02:49:39;19.88;;;13.38;;
26622;SDS011;14254;50.968;5.366;2022-11-15T02:52:08;21.05;;;13.98;;
26622;SDS011;14254;50.968;5.366;2022-11-15T02:54:34;18.63;;;13.35;;
26622;SDS011;14254;50.968;5.366;2022-11-15T02:57:01;22.27;;;13.30;;
26622;SDS011;14254;50.968;5.366;2022-11-15T03:10:26;23.63;;;13.60;;
26622;SDS011;14254;50.968;5.366;2022-11-15T03:13:12;22.05;;;13.77;;
26622;SDS011;14254;50.968;5.366;2022-11-15T03:16:04;27.15;;;13.82;;
26622;SDS011;14254;50.968;5.366;2022-11-15T03:18:38;24.00;;;15.60;;
26622;SDS011;14254;50.968;5.366;2022-11-15T03:21:12;27.63;;;15.65;;
26622;SDS011;14254;50.968;5.366;2022-11-15T03:23:41;24.67;;;15.35;;
26622;SDS011;14254;50.968;5.366;2022-11-15T03:26:09;25.88;;;14.98;;
26622;SDS011;14254;50.968;5.366;2022-11-15T03:31:15;34.88;;;16.88;;
26622;SDS011;14254;50.968;5.366;2022-11-15T03:34:03;23.55;;;16.45;;
26622;SDS011;14254;50.968;5.366;2022-11-15T03:36:33;33.72;;;17.58;;
26622;SDS011;14254;50.968;5.366;2022-11-15T03:39:00;26.38;;;16.60;;
26622;SDS011;14254;50.968;5.366;2022-11-15T03:41:50;25.58;;;16.75;;
26622;SDS011;14254;50.968;5.366;2022-11-15T03:47:23;29.17;;;17.52;;
26622;SDS011;14254;50.968;5.366;2022-11-15T03:49:57;29.83;;;17.67;;
26622;SDS011;14254;50.968;5.366;2022-11-15T03:52:32;26.63;;;17.80;;
26622;SDS011;14254;50.968;5.366;2022-11-15T03:54:59;28.98;;;18.77;;
26622;SDS011;14254;50.968;5.366;2022-11-15T03:57:26;30.77;;;18.88;;
26622;SDS011;14254;50.968;5.366;2022-11-15T03:59:52;26.52;;;17.92;;
26622;SDS011;14254;50.968;5.366;2022-11-15T04:02:18;26.52;;;17.45;;
26622;SDS011;14254;50.968;5.366;2022-11-15T04:04:43;29.23;;;17.15;;
26622;SDS011;14254;50.968;5.366;2022-11-15T04:07:09;24.20;;;17.25;;
26622;SDS011;14254;50.968;5.366;2022-11-15T04:09:35;25.42;;;17.10;;
26622;SDS011;14254;50.968;5.366;2022-11-15T04:12:20;23.75;;;16.80;;
26622;SDS011;14254;50.968;5.366;2022-11-15T04:15:08;32.20;;;17.90;;
26622;SDS011;14254;50.968;5.366;2022-11-15T04:20:23;27.33;;;17.27;;
26622;SDS011;14254;50.968;5.366;2022-11-15T04:23:13;25.98;;;16.40;;
26622;SDS011;14254;50.968;5.366;2022-11-15T04:26:03;24.70;;;16.88;;
26622;SDS011;14254;50.968;5.366;2022-11-15T04:28:30;26.75;;;16.17;;
26622;SDS011;14254;50.968;5.366;2022-11-15T04:30:56;28.20;;;17.17;;
26622;SDS011;14254;50.968;5.366;2022-11-15T04:33:22;26.63;;;16.90;;
26622;SDS011;14254;50.968;5.366;2022-11-15T04:35:48;27.30;;;16.50;;
26622;SDS011;14254;50.968;5.366;2022-11-15T04:38:32;25.42;;;16.25;;
26622;SDS011;14254;50.968;5.366;2022-11-15T04:40:58;27.17;;;16.20;;
26622;SDS011;14254;50.968;5.366;2022-11-15T04:43:24;25.17;;;16.95;;
26622;SDS011;14254;50.968;5.366;2022-11-15T04:45:50;25.20;;;17.17;;
26622;SDS011;14254;50.968;5.366;2022-11-15T04:48:15;24.80;;;16.20;;
26622;SDS011;14254;50.968;5.366;2022-11-15T04:50:41;24.27;;;15.73;;
26622;SDS011;14254;50.968;5.366;2022-11-15T04:53:06;26.20;;;15.85;;
26622;SDS011;14254;50.968;5.366;2022-11-15T04:55:32;25.70;;;17.63;;
26622;SDS011;14254;50.968;5.366;2022-11-15T04:58:01;24.60;;;15.35;;
26622;SDS011;14254;50.968;5.366;2022-11-15T05:00:27;29.45;;;16.42;;
26622;SDS011;14254;50.968;5.366;2022-11-15T05:02:54;21.42;;;9.50;;
26622;SDS011;14254;50.968;5.366;2022-11-15T05:05:39;9.77;;;6.82;;
26622;SDS011;14254;50.968;5.366;2022-11-15T05:08:05;6.47;;;4.75;;
26622;SDS011;14254;50.968;5.366;2022-11-15T05:10:30;6.35;;;4.68;;
26622;SDS011;14254;50.968;5.366;2022-11-15T05:12:56;9.43;;;4.78;;
26622;SDS011;14254;50.968;5.366;2022-11-15T05:15:21;9.63;;;5.07;;
26622;SDS011;14254;50.968;5.366;2022-11-15T05:17:47;6.88;;;5.40;;
26622;SDS011;14254;50.968;5.366;2022-11-15T05:20:13;9.75;;;4.85;;
26622;SDS011;14254;50.968;5.366;2022-11-15T05:22:38;8.23;;;4.90;;
26622;SDS011;14254;50.968;5.366;2022-11-15T05:25:04;9.07;;;5.90;;
26622;SDS011;14254;50.968;5.366;2022-11-15T05:27:31;6.43;;;4.82;;
26622;SDS011;14254;50.968;5.366;2022-11-15T05:29:57;10.20;;;4.00;;
26622;SDS011;14254;50.968;5.366;2022-11-15T05:32:23;10.05;;;3.90;;
26622;SDS011;14254;50.968;5.366;2022-11-15T05:34:49;6.60;;;3.88;;
26622;SDS011;14254;50.968;5.366;2022-11-15T05:37:15;5.40;;;4.10;;
26622;SDS011;14254;50.968;5.366;2022-11-15T05:39:41;9.15;;;3.80;;
26622;SDS011;14254;50.968;5.366;2022-11-15T05:42:11;9.38;;;4.40;;
26622;SDS011;14254;50.968;5.366;2022-11-15T05:44:39;8.40;;;4.28;;
26622;SDS011;14254;50.968;5.366;2022-11-15T05:47:09;11.10;;;5.07;;
26622;SDS011;14254;50.968;5.366;2022-11-15T05:49:38;11.38;;;6.22;;
26622;SDS011;14254;50.968;5.366;2022-11-15T05:52:07;9.32;;;5.82;;
26622;SDS011;14254;50.968;5.366;2022-11-15T05:54:35;14.52;;;5.50;;
26622;SDS011;14254;50.968;5.366;2022-11-15T05:57:01;11.35;;;6.10;;
26622;SDS011;14254;50.968;5.366;2022-11-15T05:59:29;10.77;;;5.70;;
26622;SDS011;14254;50.968;5.366;2022-11-15T06:01:55;15.13;;;5.68;;
26622;SDS011;14254;50.968;5.366;2022-11-15T06:04:21;9.93;;;6.55;;
26622;SDS011;14254;50.968;5.366;2022-11-15T06:06:47;18.25;;;5.85;;
26622;SDS011;14254;50.968;5.366;2022-11-15T06:09:12;11.02;;;6.28;;
26622;SDS011;14254;50.968;5.366;2022-11-15T06:11:38;11.60;;;6.57;;
26622;SDS011;14254;50.968;5.366;2022-11-15T06:14:04;18.08;;;8.00;;
26622;SDS011;14254;50.968;5.366;2022-11-15T06:16:29;12.70;;;7.78;;
26622;SDS011;14254;50.968;5.366;2022-11-15T06:18:55;16.70;;;8.55;;
26622;SDS011;14254;50.968;5.366;2022-11-15T06:21:21;24.80;;;9.93;;
26622;SDS011;14254;50.968;5.366;2022-11-15T06:23:47;17.50;;;9.38;;
26622;SDS011;14254;50.968;5.366;2022-11-15T06:26:12;17.35;;;9.00;;
26622;SDS011;14254;50.968;5.366;2022-11-15T06:28:38;22.30;;;9.98;;
26622;SDS011;14254;50.968;5.366;2022-11-15T06:31:10;18.42;;;9.50;;
26622;SDS011;14254;50.968;5.366;2022-11-15T06:33:36;19.92;;;9.57;;
26622;SDS011;14254;50.968;5.366;2022-11-15T06:36:04;20.63;;;9.48;;
26622;SDS011;14254;50.968;5.366;2022-11-15T06:38:34;17.80;;;9.60;;
26622;SDS011;14254;50.968;5.366;2022-11-15T06:41:04;20.10;;;9.20;;
26622;SDS011;14254;50.968;5.366;2022-11-15T06:43:31;21.98;;;10.23;;
26622;SDS011;14254;50.968;5.366;2022-11-15T06:45:58;17.50;;;10.15;;
26622;SDS011;14254;50.968;5.366;2022-11-15T06:48:24;18.55;;;8.73;;
26622;SDS011;14254;50.968;5.366;2022-11-15T06:50:54;18.48;;;8.75;;
26622;SDS011;14254;50.968;5.366;2022-11-15T06:53:21;21.80;;;9.50;;
26622;SDS011;14254;50.968;5.366;2022-11-15T06:55:47;18.33;;;8.95;;
26622;SDS011;14254;50.968;5.366;2022-11-15T06:58:13;18.42;;;8.85;;
26622;SDS011;14254;50.968;5.366;2022-11-15T07:00:39;16.27;;;9.23;;
26622;SDS011;14254;50.968;5.366;2022-11-15T07:03:06;18.45;;;8.10;;
26622;SDS011;14254;50.968;5.366;2022-11-15T07:05:32;14.57;;;7.22;;
26622;SDS011;14254;50.968;5.366;2022-11-15T07:07:57;20.30;;;9.27;;
26622;SDS011;14254;50.968;5.366;2022-11-15T07:10:24;15.30;;;7.93;;
26622;SDS011;14254;50.968;5.366;2022-11-15T07:12:51;14.13;;;7.85;;
26622;SDS011;14254;50.968;5.366;2022-11-15T07:15:18;16.48;;;7.95;;
26622;SDS011;14254;50.968;5.366;2022-11-15T07:17:47;13.90;;;8.30;;
26622;SDS011;14254;50.968;5.366;2022-11-15T07:20:13;15.00;;;8.05;;
26622;SDS011;14254;50.968;5.366;2022-11-15T07:22:40;18.20;;;7.88;;
26622;SDS011;14254;50.968;5.366;2022-11-15T07:25:06;17.98;;;9.02;;
26622;SDS011;14254;50.968;5.366;2022-11-15T07:27:32;16.48;;;8.57;;
26622;SDS011;14254;50.968;5.366;2022-11-15T07:29:58;15.13;;;9.13;;
26622;SDS011;14254;50.968;5.366;2022-11-15T07:32:24;21.75;;;9.10;;
26622;SDS011;14254;50.968;5.366;2022-11-15T07:34:50;20.13;;;9.10;;
26622;SDS011;14254;50.968;5.366;2022-11-15T07:37:15;16.63;;;8.07;;
26622;SDS011;14254;50.968;5.366;2022-11-15T07:39:42;15.25;;;8.05;;
26622;SDS011;14254;50.968;5.366;2022-11-15T07:42:08;12.88;;;8.07;;
26622;SDS011;14254;50.968;5.366;2022-11-15T07:44:52;18.05;;;7.97;;
26622;SDS011;14254;50.968;5.366;2022-11-15T07:47:17;18.05;;;8.15;;
26622;SDS011;14254;50.968;5.366;2022-11-15T07:49:43;15.15;;;8.55;;
26622;SDS011;14254;50.968;5.366;2022-11-15T07:52:09;17.80;;;8.55;;
26622;SDS011;14254;50.968;5.366;2022-11-15T07:54:34;11.48;;;7.20;;
26622;SDS011;14254;50.968;5.366;2022-11-15T07:57:00;17.27;;;7.80;;
26622;SDS011;14254;50.968;5.366;2022-11-15T07:59:25;12.57;;;8.68;;
26622;SDS011;14254;50.968;5.366;2022-11-15T08:01:51;12.70;;;7.90;;
26622;SDS011;14254;50.968;5.366;2022-11-15T08:04:17;15.27;;;7.82;;
26622;SDS011;14254;50.968;5.366;2022-11-15T08:06:42;14.75;;;8.20;;
26622;SDS011;14254;50.968;5.366;2022-11-15T08:09:08;12.27;;;7.75;;
26622;SDS011;14254;50.968;5.366;2022-11-15T08:11:33;15.07;;;7.85;;
26622;SDS011;14254;50.968;5.366;2022-11-15T08:13:59;9.23;;;5.72;;
26622;SDS011;14254;50.968;5.366;2022-11-15T08:16:25;17.70;;;7.95;;
26622;SDS011;14254;50.968;5.366;2022-11-15T08:18:50;11.65;;;6.68;;
26622;SDS011;14254;50.968;5.366;2022-11-15T08:21:17;9.88;;;7.10;;
26622;SDS011;14254;50.968;5.366;2022-11-15T08:23:44;10.73;;;5.88;;
26622;SDS011;14254;50.968;5.366;2022-11-15T08:26:10;9.85;;;5.85;;
26622;SDS011;14254;50.968;5.366;2022-11-15T08:28:35;7.22;;;4.47;;
26622;SDS011;14254;50.968;5.366;2022-11-15T08:31:01;8.90;;;4.68;;
26622;SDS011;14254;50.968;5.366;2022-11-15T08:33:28;11.52;;;4.60;;
26622;SDS011;14254;50.968;5.366;2022-11-15T08:35:58;7.53;;;4.35;;
26622;SDS011;14254;50.968;5.366;2022-11-15T08:38:24;6.30;;;4.22;;
26622;SDS011;14254;50.968;5.366;2022-11-15T08:40:50;15.73;;;5.05;;
26622;SDS011;14254;50.968;5.366;2022-11-15T08:43:18;5.85;;;3.45;;
26622;SDS011;14254;50.968;5.366;2022-11-15T08:45:43;8.68;;;2.92;;
26622;SDS011;14254;50.968;5.366;2022-11-15T08:48:10;8.15;;;3.17;;
26622;SDS011;14254;50.968;5.366;2022-11-15T08:50:35;6.30;;;2.78;;
26622;SDS011;14254;50.968;5.366;2022-11-15T08:53:05;6.32;;;3.10;;
26622;SDS011;14254;50.968;5.366;2022-11-15T08:55:31;3.47;;;2.22;;
26622;SDS011;14254;50.968;5.366;2022-11-15T08:57:57;7.43;;;3.03;;
26622;SDS011;14254;50.968;5.366;2022-11-15T09:00:23;4.65;;;1.80;;
26622;SDS011;14254;50.968;5.366;2022-11-15T09:02:49;6.80;;;2.08;;
26622;SDS011;14254;50.968;5.366;2022-11-15T09:05:14;1.85;;;1.38;;
26622;SDS011;14254;50.968;5.366;2022-11-15T09:07:40;5.88;;;2.03;;
26622;SDS011;14254;50.968;5.366;2022-11-15T09:10:06;2.97;;;2.03;;
26622;SDS011;14254;50.968;5.366;2022-11-15T09:12:32;2.67;;;2.25;;
26622;SDS011;14254;50.968;5.366;2022-11-15T09:14:58;5.00;;;2.63;;
26622;SDS011;14254;50.968;5.366;2022-11-15T09:17:23;5.88;;;2.35;;
26622;SDS011;14254;50.968;5.366;2022-11-15T09:19:49;4.45;;;1.90;;
26622;SDS011;14254;50.968;5.366;2022-11-15T09:22:15;7.97;;;2.30;;
26622;SDS011;14254;50.968;5.366;2022-11-15T09:24:40;5.40;;;2.35;;
26622;SDS011;14254;50.968;5.366;2022-11-15T09:27:06;10.38;;;2.58;;
26622;SDS011;14254;50.968;5.366;2022-11-15T09:29:32;9.00;;;2.28;;
26622;SDS011;14254;50.968;5.366;2022-11-15T09:31:57;5.82;;;2.13;;
26622;SDS011;14254;50.968;5.366;2022-11-15T09:34:23;5.63;;;2.05;;
26622;SDS011;14254;50.968;5.366;2022-11-15T09:36:48;5.05;;;1.95;;
26622;SDS011;14254;50.968;5.366;2022-11-15T09:39:14;6.15;;;1.88;;
26622;SDS011;14254;50.968;5.366;2022-11-15T09:41:58;7.55;;;2.22;;
26622;SDS011;14254;50.968;5.366;2022-11-15T09:44:56;2.60;;;2.00;;
26622;SDS011;14254;50.968;5.366;2022-11-15T09:50:32;12.90;;;2.53;;
26622;SDS011;14254;50.968;5.366;2022-11-15T09:53:00;4.78;;;2.50;;
26622;SDS011;14254;50.968;5.366;2022-11-15T09:55:31;3.88;;;1.83;;
26622;SDS011;14254;50.968;5.366;2022-11-15T10:01:02;3.50;;;1.70;;
26622;SDS011;14254;50.968;5.366;2022-11-15T10:03:34;5.07;;;1.80;;
26622;SDS011;14254;50.968;5.366;2022-11-15T10:06:03;3.97;;;1.80;;
26622;SDS011;14254;50.968;5.366;2022-11-15T10:10:57;11.23;;;3.17;;
26622;SDS011;14254;50.968;5.366;2022-11-15T10:13:31;7.55;;;2.13;;
26622;SDS011;14254;50.968;5.366;2022-11-15T10:18:52;4.38;;;1.40;;
26622;SDS011;14254;50.968;5.366;2022-11-15T10:21:35;5.75;;;1.60;;
26622;SDS011;14254;50.968;5.366;2022-11-15T10:24:19;8.48;;;2.00;;
26622;SDS011;14254;50.968;5.366;2022-11-15T10:26:48;5.38;;;1.40;;
26622;SDS011;14254;50.968;5.366;2022-11-15T10:29:21;9.32;;;1.77;;
26622;SDS011;14254;50.968;5.366;2022-11-15T10:31:48;6.72;;;1.83;;
26622;SDS011;14254;50.968;5.366;2022-11-15T10:34:15;2.85;;;1.13;;
26622;SDS011;14254;50.968;5.366;2022-11-15T10:36:46;7.13;;;1.42;;
26622;SDS011;14254;50.968;5.366;2022-11-15T10:39:21;9.68;;;1.40;;
26622;SDS011;14254;50.968;5.366;2022-11-15T10:41:47;4.75;;;1.30;;
26622;SDS011;14254;50.968;5.366;2022-11-15T10:46:42;2.72;;;1.35;;
26622;SDS011;14254;50.968;5.366;2022-11-15T10:54:37;6.57;;;2.08;;
26622;SDS011;14254;50.968;5.366;2022-11-15T10:57:08;3.05;;;1.23;;
26622;SDS011;14254;50.968;5.366;2022-11-15T10:59:40;4.82;;;1.08;;
26622;SDS011;14254;50.968;5.366;2022-11-15T11:02:33;6.93;;;2.40;;
26622;SDS011;14254;50.968;5.366;2022-11-15T11:05:28;4.75;;;1.27;;
26622;SDS011;14254;50.968;5.366;2022-11-15T11:08:03;4.03;;;1.40;;
26622;SDS011;14254;50.968;5.366;2022-11-15T11:10:30;8.50;;;1.58;;
26622;SDS011;14254;50.968;5.366;2022-11-15T11:13:04;6.45;;;1.70;;
26622;SDS011;14254;50.968;5.366;2022-11-15T11:15:50;3.00;;;1.23;;
26622;SDS011;14254;50.968;5.366;2022-11-15T11:18:38;5.10;;;1.60;;
26622;SDS011;14254;50.968;5.366;2022-11-15T11:21:08;6.18;;;1.60;;
26622;SDS011;14254;50.968;5.366;2022-11-15T11:32:34;8.18;;;1.30;;
26622;SDS011;14254;50.968;5.366;2022-11-15T11:35:13;6.78;;;1.70;;
26622;SDS011;14254;50.968;5.366;2022-11-15T11:50:38;3.28;;;1.30;;
26622;SDS011;14254;50.968;5.366;2022-11-15T11:53:10;4.43;;;1.35;;
26622;SDS011;14254;50.968;5.366;2022-11-15T11:55:45;4.65;;;1.05;;
26622;SDS011;14254;50.968;5.366;2022-11-15T12:03:59;6.78;;;1.40;;
26622;SDS011;14254;50.968;5.366;2022-11-15T12:09:33;2.70;;;0.75;;
26622;SDS011;14254;50.968;5.366;2022-11-15T12:12:18;6.45;;;1.30;;
26622;SDS011;14254;50.968;5.366;2022-11-15T12:15:14;4.82;;;1.20;;
26622;SDS011;14254;50.968;5.366;2022-11-15T12:17:43;8.23;;;1.85;;
26622;SDS011;14254;50.968;5.366;2022-11-15T12:20:20;3.80;;;1.25;;
26622;SDS011;14254;50.968;5.366;2022-11-15T12:25:21;1.80;;;1.00;;
26622;SDS011;14254;50.968;5.366;2022-11-15T12:36:12;8.13;;;1.60;;
26622;SDS011;14254;50.968;5.366;2022-11-15T12:39:03;7.28;;;1.55;;
26622;SDS011;14254;50.968;5.366;2022-11-15T12:44:11;9.07;;;1.50;;
26622;SDS011;14254;50.968;5.366;2022-11-15T13:18:23;3.90;;;1.45;;
26622;SDS011;14254;50.968;5.366;2022-11-15T13:20:45;5.78;;;1.33;;
26622;SDS011;14254;50.968;5.366;2022-11-15T13:23:12;9.18;;;1.40;;
26622;SDS011;14254;50.968;5.366;2022-11-15T13:25:55;4.05;;;1.40;;
26622;SDS011;14254;50.968;5.366;2022-11-15T13:36:58;1.75;;;1.10;;
26622;SDS011;14254;50.968;5.366;2022-11-15T13:39:31;2.58;;;1.15;;
26622;SDS011;14254;50.968;5.366;2022-11-15T13:41:59;2.30;;;1.00;;
26622;SDS011;14254;50.968;5.366;2022-11-15T13:44:29;3.80;;;1.25;;
26622;SDS011;14254;50.968;5.366;2022-11-15T13:49:29;2.50;;;1.38;;
26622;SDS011;14254;50.968;5.366;2022-11-15T13:51:56;4.78;;;1.33;;
26622;SDS011;14254;50.968;5.366;2022-11-15T13:57:12;2.25;;;1.20;;
26622;SDS011;14254;50.968;5.366;2022-11-15T13:59:45;2.80;;;1.30;;
26622;SDS011;14254;50.968;5.366;2022-11-15T14:02:14;2.03;;;1.10;;
26622;SDS011;14254;50.968;5.366;2022-11-15T14:04:49;1.98;;;1.33;;
26622;SDS011;14254;50.968;5.366;2022-11-15T14:07:18;2.70;;;1.38;;
26622;SDS011;14254;50.968;5.366;2022-11-15T14:09:48;4.55;;;1.60;;
26622;SDS011;14254;50.968;5.366;2022-11-15T14:15:00;6.18;;;1.55;;
26622;SDS011;14254;50.968;5.366;2022-11-15T14:17:42;3.78;;;1.23;;
26622;SDS011;14254;50.968;5.366;2022-11-15T14:20:19;4.65;;;1.63;;
26622;SDS011;14254;50.968;5.366;2022-11-15T14:22:55;4.47;;;1.35;;
26622;SDS011;14254;50.968;5.366;2022-11-15T14:25:29;4.40;;;1.88;;
26622;SDS011;14254;50.968;5.366;2022-11-15T14:30:40;1.38;;;1.17;;
26622;SDS011;14254;50.968;5.366;2022-11-15T14:33:40;2.13;;;1.38;;
26622;SDS011;14254;50.968;5.366;2022-11-15T14:36:15;1.05;;;1.02;;
26622;SDS011;14254;50.968;5.366;2022-11-15T14:38:45;3.75;;;1.45;;
26622;SDS011;14254;50.968;5.366;2022-11-15T14:41:17;2.63;;;1.30;;
26622;SDS011;14254;50.968;5.366;2022-11-15T14:43:44;1.38;;;1.27;;
26622;SDS011;14254;50.968;5.366;2022-11-15T14:46:11;3.00;;;1.70;;
26622;SDS011;14254;50.968;5.366;2022-11-15T14:48:36;1.75;;;1.10;;
26622;SDS011;14254;50.968;5.366;2022-11-15T14:51:02;3.05;;;1.50;;
26622;SDS011;14254;50.968;5.366;2022-11-15T14:53:28;6.60;;;1.75;;
26622;SDS011;14254;50.968;5.366;2022-11-15T14:55:53;1.90;;;1.20;;
26622;SDS011;14254;50.968;5.366;2022-11-15T14:58:19;1.20;;;1.10;;
26622;SDS011;14254;50.968;5.366;2022-11-15T15:00:45;1.92;;;1.60;;
26622;SDS011;14254;50.968;5.366;2022-11-15T15:03:10;3.20;;;1.50;;
26622;SDS011;14254;50.968;5.366;2022-11-15T15:05:37;4.68;;;1.65;;
26622;SDS011;14254;50.968;5.366;2022-11-15T15:08:05;4.30;;;1.65;;
26622;SDS011;14254;50.968;5.366;2022-11-15T15:10:32;2.28;;;1.40;;
26622;SDS011;14254;50.968;5.366;2022-11-15T15:13:00;2.95;;;1.40;;
26622;SDS011;14254;50.968;5.366;2022-11-15T15:15:29;3.92;;;1.25;;
26622;SDS011;14254;50.968;5.366;2022-11-15T15:17:58;5.18;;;1.42;;
26622;SDS011;14254;50.968;5.366;2022-11-15T15:20:23;8.25;;;1.60;;
26622;SDS011;14254;50.968;5.366;2022-11-15T15:22:49;2.88;;;1.55;;
26622;SDS011;14254;50.968;5.366;2022-11-15T15:25:36;3.95;;;1.90;;
26622;SDS011;14254;50.968;5.366;2022-11-15T15:28:01;2.72;;;1.65;;
26622;SDS011;14254;50.968;5.366;2022-11-15T15:30:27;6.03;;;1.55;;
26622;SDS011;14254;50.968;5.366;2022-11-15T15:32:55;7.60;;;1.92;;
26622;SDS011;14254;50.968;5.366;2022-11-15T15:35:20;3.22;;;1.67;;
26622;SDS011;14254;50.968;5.366;2022-11-15T15:37:47;3.15;;;1.83;;
26622;SDS011;14254;50.968;5.366;2022-11-15T15:42:47;6.80;;;2.00;;
26622;SDS011;14254;50.968;5.366;2022-11-15T15:45:14;4.00;;;2.03;;
26622;SDS011;14254;50.968;5.366;2022-11-15T15:47:40;4.00;;;2.22;;
26622;SDS011;14254;50.968;5.366;2022-11-15T15:50:14;2.45;;;2.13;;
26622;SDS011;14254;50.968;5.366;2022-11-15T15:52:55;3.80;;;2.40;;
26622;SDS011;14254;50.968;5.366;2022-11-15T15:55:23;3.83;;;2.20;;
26622;SDS011;14254;50.968;5.366;2022-11-15T15:57:49;3.35;;;2.17;;
26622;SDS011;14254;50.968;5.366;2022-11-15T16:00:16;3.92;;;2.85;;
26622;SDS011;14254;50.968;5.366;2022-11-15T16:02:43;9.45;;;3.15;;
26622;SDS011;14254;50.968;5.366;2022-11-15T16:05:09;9.88;;;6.65;;
26622;SDS011;14254;50.968;5.366;2022-11-15T16:07:35;7.15;;;4.82;;
26622;SDS011;14254;50.968;5.366;2022-11-15T16:10:01;11.73;;;7.53;;
26622;SDS011;14254;50.968;5.366;2022-11-15T16:12:46;4.47;;;2.90;;
26622;SDS011;14254;50.968;5.366;2022-11-15T16:15:12;7.43;;;3.50;;
26622;SDS011;14254;50.968;5.366;2022-11-15T16:17:38;5.47;;;3.08;;
26622;SDS011;14254;50.968;5.366;2022-11-15T16:20:31;6.97;;;3.13;;
26622;SDS011;14254;50.968;5.366;2022-11-15T16:23:00;5.63;;;3.42;;
26622;SDS011;14254;50.968;5.366;2022-11-15T16:25:27;6.18;;;3.35;;
26622;SDS011;14254;50.968;5.366;2022-11-15T16:27:52;6.65;;;4.05;;
26622;SDS011;14254;50.968;5.366;2022-11-15T16:30:19;7.93;;;4.53;;
26622;SDS011;14254;50.968;5.366;2022-11-15T16:32:46;10.45;;;4.50;;
26622;SDS011;14254;50.968;5.366;2022-11-15T16:35:12;11.45;;;5.00;;
26622;SDS011;14254;50.968;5.366;2022-11-15T16:37:39;7.50;;;4.57;;
26622;SDS011;14254;50.968;5.366;2022-11-15T16:42:59;8.85;;;5.90;;
26622;SDS011;14254;50.968;5.366;2022-11-15T16:45:26;8.35;;;5.88;;
26622;SDS011;14254;50.968;5.366;2022-11-15T16:47:53;8.77;;;6.25;;
26622;SDS011;14254;50.968;5.366;2022-11-15T16:50:24;6.82;;;5.40;;
26622;SDS011;14254;50.968;5.366;2022-11-15T16:52:53;13.40;;;6.07;;
26622;SDS011;14254;50.968;5.366;2022-11-15T16:55:21;8.75;;;6.22;;
26622;SDS011;14254;50.968;5.366;2022-11-15T16:57:48;10.13;;;5.85;;
26622;SDS011;14254;50.968;5.366;2022-11-15T17:00:15;11.07;;;6.63;;
26622;SDS011;14254;50.968;5.366;2022-11-15T17:02:42;9.77;;;6.70;;
26622;SDS011;14254;50.968;5.366;2022-11-15T17:05:09;12.27;;;7.15;;
26622;SDS011;14254;50.968;5.366;2022-11-15T17:07:36;9.02;;;7.05;;
26622;SDS011;14254;50.968;5.366;2022-11-15T17:10:02;14.15;;;7.50;;
26622;SDS011;14254;50.968;5.366;2022-11-15T17:12:27;11.88;;;7.57;;
26622;SDS011;14254;50.968;5.366;2022-11-15T17:14:55;11.95;;;8.45;;